Patterson, CA (95363)

1:43 PM PDT on July 24, 2016 (GMT -0700)
Sycamore Ave Patterson CA | | Change Station

Elev 0 ft 37.44 °N, 121.09 °W | Updated 5 seconds ago

Clear
Clear
99.1 °F
Feels Like 98 °F
N
3.4
Wind Variable Wind from South
Gusts 6.0 mph

Today
High -- | Low -- °F
--% Chance of Precip.
Yesterday
High -- | Low -- °F
Precip. -- in
Pressure 29.81 in
Visibility 10.0 miles
Clouds Clear
Heat Index 98 °F
Dew Point 56 °F
Humidity 24%
Rainfall 0.00 in
Snow Depth Not available.
6:02 AM 8:19 PM
Waning Gibbous, 73% visible
METAR KMOD 241953Z 00000KT 10SM CLR 36/08 A2981 RMK AO2 SLP095 T03610083
Pressure 29.81 in
Visibility 10.0 miles
Clouds Clear
Heat Index 98 °F
Dew Point 56 °F
Humidity 24%
Rainfall 0.00 in
Snow Depth Not available.
6:02 AM 8:19 PM
Waning Gibbous, 73% visible
METAR KMOD 241953Z 00000KT 10SM CLR 36/08 A2981 RMK AO2 SLP095 T03610083

10-Day Weather Forecast

Almanac

Astronomy

Jul. 24, 2016 Rise Set
Actual Time
Civil Twilight
Nautical Twilight
Astronomical Twilight
Moon
Length of Visible Light
Length of Day
Tomorrow will be .
, % of the Moon is Illuminated

Today's Extremes

State Highs State Lows

Community

WunderPhotos

Upload Photos

1,927,189 photos uploaded!

WunderBlog® & News

Nearby

Air Quality

  Air Quality AQ Index Pollutant
Not available.

Snow Depth

Station Depth Elevation

Earthquake Activity

City Distance Mag. Time & Date
Minimum magnitude displayed is 2.5.

Coastal Water Temperatures

Place Temperature

Stations

Nearby Weather Stations

Station Location Temp. Windchill Dew Point Humidity Wind Precip. Elev Updated Type
                   

Watches & Warnings

There are currently no watches in effect.